Time;durP1;ratioP1;P1;durP2;ratioP2;P2;SDS_P1;SDS_P2;PMS_P1;PMS_P2;Temp;Humidity;BMP_temperature;BMP_pressure;BME280_temperature;BME280_humidity;BME280_pressure;Samples;Min_cycle;Max_cycle;Signal;HPM_P1;HPM_P2
2022/10/10 00:00:25;;;;;;;4.90;3.10;;;9.50;80.90;;;9.66;70.44;98145.03;5012692;28;20488;-80
2022/10/10 00:02:53;;;;;;;6.70;3.40;;;9.50;81.10;;;9.62;70.80;98145.44;5028988;28;20953;-82
2022/10/10 00:05:21;;;;;;;3.63;3.33;;;9.40;81.20;;;9.63;70.23;98141.72;4999712;28;20465;-82
2022/10/10 00:07:48;;;;;;;3.60;2.80;;;9.40;81.30;;;9.56;71.26;98140.06;4999497;28;20456;-81
2022/10/10 00:10:15;;;;;;;6.33;3.63;;;9.40;81.40;;;9.43;71.11;98130.06;5008025;28;21077;-83
2022/10/10 00:12:43;;;;;;;5.70;3.40;;;9.40;81.50;;;9.45;71.23;98136.94;5025176;28;20463;-79
2022/10/10 00:15:13;;;;;;;4.13;3.63;;;9.40;81.50;;;9.53;72.06;98144.00;5010080;28;20797;-79
2022/10/10 00:17:42;;;;;;;6.30;3.33;;;9.30;81.90;;;9.33;72.39;98117.00;5023107;28;20471;-79
2022/10/10 00:20:12;;;;;;;3.80;3.40;;;9.30;81.80;;;9.51;71.37;98146.06;4999480;28;20474;-80
2022/10/10 00:22:40;;;;;;;4.00;2.83;;;9.30;82.00;;;9.35;72.30;98150.81;5021405;28;20986;-80
2022/10/10 00:25:09;;;;;;;4.30;3.30;;;9.10;82.30;;;9.29;72.54;98146.22;5011407;28;20845;-80
2022/10/10 00:27:37;;;;;;;7.20;3.63;;;9.00;82.80;;;9.32;72.80;98137.72;5014131;28;21005;-78
2022/10/10 00:30:09;;;;;;;5.03;3.17;;;9.00;83.20;;;9.47;72.90;98144.78;5019801;28;20513;-80
2022/10/10 00:32:37;;;;;;;3.90;2.97;;;9.10;83.30;;;9.44;72.22;98129.88;5019874;28;20539;-78
2022/10/10 00:35:05;;;;;;;5.17;3.70;;;9.20;83.30;;;9.46;71.87;98137.75;5003987;28;20798;-79
2022/10/10 00:37:34;;;;;;;4.50;3.37;;;9.20;83.30;;;9.47;72.14;98134.00;5020812;28;20457;-80
2022/10/10 00:40:01;;;;;;;4.83;3.20;;;9.20;83.40;;;9.46;72.27;98129.66;5039747;28;20483;-80
2022/10/10 00:42:29;;;;;;;5.00;3.23;;;9.20;83.40;;;9.44;72.21;98134.44;5026783;28;20472;-81
2022/10/10 00:45:27;;;;;;;6.33;3.27;;;9.20;83.50;;;9.39;73.35;98126.13;5024520;28;20458;-79
2022/10/10 00:48:02;;;;;;;3.77;3.37;;;9.10;83.70;;;9.40;72.81;98127.78;5044379;28;20475;-79
2022/10/10 00:50:31;;;;;;;4.93;3.40;;;9.10;84.00;;;9.39;73.04;98126.13;5039378;28;20473;-81
2022/10/10 00:53:00;;;;;;;4.10;3.10;;;9.10;84.10;;;9.34;72.60;98108.72;5014625;28;20454;-79
2022/10/10 00:55:28;;;;;;;6.00;3.13;;;9.20;84.00;;;9.47;72.79;98124.06;5032126;28;20468;-80
2022/10/10 00:57:55;;;;;;;4.47;3.30;;;9.20;83.90;;;9.47;73.01;98118.66;5021202;28;20477;-81
2022/10/10 01:00:22;;;;;;;4.30;3.23;;;9.30;83.80;;;9.47;72.73;98125.91;5022909;28;20703;-80
2022/10/10 01:02:51;;;;;;;7.97;3.73;;;9.20;83.90;;;9.33;72.81;98104.34;5001926;28;20483;-79
2022/10/10 01:05:19;;;;;;;4.60;3.50;;;9.30;83.90;;;9.53;72.60;98129.66;5010646;28;20859;-79
2022/10/10 01:07:47;;;;;;;4.07;3.30;;;9.30;83.80;;;9.53;73.00;98122.41;5017561;28;20468;-80
2022/10/10 01:10:23;;;;;;;6.23;3.53;;;9.30;83.70;;;9.56;72.27;98127.38;5014890;28;20462;-80
2022/10/10 01:13:06;;;;;;;3.77;3.10;;;9.30;83.80;;;9.57;71.94;98118.25;5030814;28;20465;-81
2022/10/10 01:15:47;;;;;;;3.33;3.03;;;9.30;83.80;;;9.57;72.38;98123.66;5003698;28;20986;-80
2022/10/10 01:18:25;;;;;;;6.33;3.93;;;9.40;83.60;;;9.59;72.54;98116.19;5022883;28;20464;-80
2022/10/10 01:21:23;;;;;;;3.60;3.27;;;9.40;83.40;;;9.67;72.59;98117.03;5010666;28;20483;-80
2022/10/10 01:24:34;;;;;;;6.23;3.67;;;9.50;83.70;;;9.56;71.86;98084.22;5007578;28;20466;-81
2022/10/10 01:27:26;;;;;;;4.10;3.17;;;9.40;83.50;;;9.71;71.45;98112.88;5021128;28;20453;-81
2022/10/10 01:29:57;;;;;;;4.90;2.93;;;9.50;83.60;;;9.56;72.88;98097.72;5023747;28;20851;-80
2022/10/10 01:32:34;;;;;;;4.33;3.67;;;9.50;83.50;;;9.67;71.96;98100.84;5006426;28;20464;-81
2022/10/10 01:35:28;;;;;;;6.13;3.57;;;9.40;83.40;;;9.54;72.51;98107.03;5024373;28;20465;-81
2022/10/10 01:38:07;;;;;;;5.03;3.23;;;9.40;83.50;;;9.40;73.07;98100.81;5024323;28;20456;-79
2022/10/10 01:40:44;;;;;;;5.30;3.50;;;9.30;83.60;;;9.36;73.16;98100.41;5020409;28;20820;-80
2022/10/10 01:43:12;;;;;;;6.27;3.60;;;9.30;84.00;;;9.24;73.13;98097.47;5005843;28;20454;-80
2022/10/10 01:45:46;;;;;;;5.80;3.40;;;9.20;84.30;;;9.33;74.09;98100.81;5000478;28;20450;-80
2022/10/10 01:48:15;;;;;;;4.20;3.40;;;9.10;84.60;;;9.38;73.15;98102.91;5011555;28;20461;-81
2022/10/10 01:51:03;;;;;;;3.23;2.90;;;9.10;84.70;;;9.25;73.30;98109.94;5001816;28;20528;-79
2022/10/10 01:53:42;;;;;;;4.53;3.30;;;9.10;84.60;;;9.22;73.61;98104.94;5027269;28;20478;-82
2022/10/10 01:56:19;;;;;;;4.80;3.43;;;9.10;84.60;;;9.21;74.37;98105.97;5029146;28;20463;-81
2022/10/10 01:59:20;;;;;;;5.10;3.77;;;9.10;85.10;;;9.06;74.94;98096.22;5002065;28;21193;-81
2022/10/10 02:01:55;;;;;;;3.73;2.80;;;9.00;84.90;;;8.93;74.70;98072.72;4985628;28;20512;-80
2022/10/10 02:04:40;;;;;;;7.03;3.40;;;9.00;85.00;;;9.09;74.37;98096.84;5001924;28;20456;-80
2022/10/10 02:07:15;;;;;;;3.93;2.90;;;8.90;85.20;;;8.94;74.42;98078.97;5018244;28;20940;-80
2022/10/10 02:09:45;;;;;;;5.50;3.60;;;8.80;85.80;;;8.98;74.79;98098.25;5026557;28;20467;-80
2022/10/10 02:12:14;;;;;;;5.60;3.40;;;8.70;86.80;;;8.91;74.66;98092.84;5030547;28;20479;-81
2022/10/10 02:14:44;;;;;;;6.50;3.43;;;8.60;87.00;;;8.84;75.39;98097.38;5020004;28;20465;-81
2022/10/10 02:17:15;;;;;;;3.80;3.37;;;8.60;87.40;;;8.75;75.68;98089.50;5018703;28;20453;-81
2022/10/10 02:19:46;;;;;;;3.50;3.10;;;8.50;88.00;;;8.69;76.08;98084.06;5010717;28;20465;-81
2022/10/10 02:22:14;;;;;;;6.00;3.30;;;8.40;88.50;;;8.60;76.50;98091.50;5027928;28;21116;-81
2022/10/10 02:24:42;;;;;;;4.97;3.17;;;8.30;89.50;;;8.65;76.41;98089.03;5037359;28;20480;-80
2022/10/10 02:27:15;;;;;;;4.93;3.50;;;8.30;90.20;;;8.69;76.36;98073.28;5026531;28;20521;-80
2022/10/10 02:29:45;;;;;;;3.97;3.27;;;8.40;90.10;;;8.31;76.23;98008.06;5021571;28;20956;-81
2022/10/10 02:32:21;;;;;;;4.70;4.07;;;8.50;89.90;;;8.87;75.76;98080.78;5033499;28;20455;-78
2022/10/10 02:34:53;;;;;;;4.40;3.30;;;8.60;89.60;;;8.84;76.08;98079.34;5019101;28;20463;-81
2022/10/10 02:37:21;;;;;;;4.20;3.60;;;8.60;89.40;;;8.81;76.04;98070.84;5014354;28;21239;-79
2022/10/10 02:39:53;;;;;;;5.67;3.67;;;8.60;88.50;;;8.75;76.44;98077.88;5038385;28;20470;-81
2022/10/10 02:42:22;;;;;;;4.80;3.30;;;8.60;88.70;;;8.70;76.30;98078.47;5032177;28;20563;-81
2022/10/10 02:44:51;;;;;;;3.97;3.67;;;8.60;88.80;;;8.21;76.81;97988.78;5023558;28;20542;-82
2022/10/10 02:47:19;;;;;;;4.77;3.67;;;8.60;89.10;;;8.72;76.42;98076.44;5006636;28;20501;-79
2022/10/10 02:49:48;;;;;;;7.33;4.10;;;8.60;89.30;;;8.70;76.95;98083.84;5008927;28;20492;-79
2022/10/10 02:52:17;;;;;;;4.00;3.47;;;8.50;89.60;;;8.59;76.80;98055.66;5013774;28;20536;-80
2022/10/10 02:54:44;;;;;;;4.30;3.90;;;8.50;90.00;;;8.74;76.32;98068.97;5024338;28;20463;-80
2022/10/10 02:57:12;;;;;;;5.00;3.30;;;8.50;90.10;;;8.68;76.42;98052.78;5004453;28;20452;-79
2022/10/10 02:59:39;;;;;;;5.40;4.10;;;8.50;90.00;;;8.65;76.58;98064.78;5022030;28;20550;-77
2022/10/10 03:02:07;;;;;;;3.80;3.30;;;8.50;90.00;;;8.71;76.60;98068.53;5004446;28;20479;-81
2022/10/10 03:04:36;;;;;;;6.40;3.67;;;8.50;90.00;;;8.69;76.29;98074.13;5024526;28;20464;-81
2022/10/10 03:07:04;;;;;;;4.83;3.70;;;8.40;90.20;;;8.62;76.63;98062.50;5022694;28;20527;-82
2022/10/10 03:09:31;;;;;;;4.60;3.90;;;8.40;90.20;;;8.39;76.43;98036.69;5021701;28;20500;-82
2022/10/10 03:11:58;;;;;;;5.50;3.87;;;8.50;90.20;;;8.69;77.05;98074.13;5030709;28;20458;-81
2022/10/10 03:14:25;;;;;;;4.10;3.57;;;8.50;90.00;;;8.29;76.84;98010.13;5022446;28;20459;-82
2022/10/10 03:16:53;;;;;;;6.17;3.80;;;8.50;90.10;;;8.69;77.03;98062.53;5022451;28;20465;-82
2022/10/10 03:19:20;;;;;;;4.77;3.90;;;8.60;90.00;;;8.79;76.58;98071.03;5021317;28;20483;-80
2022/10/10 03:21:48;;;;;;;5.70;3.57;;;8.60;90.00;;;8.82;76.05;98064.41;5021175;28;20479;-80
2022/10/10 03:24:16;;;;;;;4.10;3.23;;;8.60;90.00;;;8.79;76.35;98079.13;5011774;28;20448;-79
2022/10/10 03:26:43;;;;;;;3.50;3.20;;;8.50;90.10;;;8.61;77.00;98055.44;5002971;28;20455;-82
2022/10/10 03:29:11;;;;;;;5.00;4.00;;;8.50;90.30;;;8.75;76.50;98075.16;5022766;28;20489;-83
2022/10/10 03:31:40;;;;;;;3.90;3.53;;;8.50;90.30;;;8.72;77.00;98073.72;5004089;28;20451;-81
2022/10/10 03:34:07;;;;;;;6.23;3.47;;;8.50;90.30;;;8.72;77.11;98071.03;5016579;28;20471;-81
2022/10/10 03:36:35;;;;;;;6.93;3.70;;;8.50;90.50;;;8.67;77.62;98064.59;5012618;28;20457;-82
2022/10/10 03:39:04;;;;;;;5.97;3.80;;;8.50;90.60;;;8.59;76.89;98054.81;5011801;28;20457;-82
2022/10/10 03:41:31;;;;;;;4.07;3.70;;;8.50;90.80;;;8.79;76.60;98071.03;5043832;28;20475;-81
2022/10/10 03:43:59;;;;;;;5.67;4.03;;;8.50;90.60;;;8.86;76.84;98058.44;5047001;28;20462;-81
2022/10/10 03:46:26;;;;;;;3.90;3.60;;;8.60;90.40;;;8.68;77.00;98048.22;5045243;28;20716;-78
2022/10/10 03:48:53;;;;;;;4.07;3.67;;;8.60;90.10;;;8.83;77.06;98058.00;5041804;28;20459;-80
2022/10/10 03:51:22;;;;;;;4.10;3.70;;;8.70;90.10;;;8.74;76.76;98044.72;5016107;28;20484;-80
2022/10/10 03:53:49;;;;;;;4.97;3.70;;;8.70;90.10;;;8.92;77.11;98064.88;5002638;28;20516;-78
2022/10/10 03:56:18;;;;;;;5.33;3.87;;;8.70;90.20;;;8.76;77.31;98034.56;5019192;28;20456;-80
2022/10/10 03:58:45;;;;;;;5.10;4.37;;;8.60;90.40;;;8.84;76.78;98048.88;5021736;28;20492;-80
2022/10/10 04:01:12;;;;;;;6.87;3.50;;;8.60;90.40;;;8.77;77.24;98068.56;5028977;28;20476;-79
2022/10/10 04:03:39;;;;;;;4.63;3.73;;;8.60;90.40;;;8.78;77.23;98062.13;5003738;28;20456;-81
2022/10/10 04:06:07;;;;;;;5.23;4.00;;;8.60;90.10;;;8.84;77.29;98062.34;5015412;28;20464;-80
2022/10/10 04:08:35;;;;;;;5.10;3.90;;;8.60;90.60;;;8.64;75.61;98017.34;5019703;28;20472;-80
2022/10/10 04:11:02;;;;;;;6.03;4.03;;;8.60;90.30;;;8.86;76.52;98041.41;5025174;28;20821;-80
2022/10/10 04:13:32;;;;;;;5.53;4.10;;;8.70;90.20;;;8.98;76.65;98065.91;5027589;28;20555;-81
2022/10/10 04:15:59;;;;;;;4.87;4.40;;;8.70;90.00;;;8.97;76.46;98059.69;5022646;28;20455;-81
2022/10/10 04:18:26;;;;;;;5.60;4.03;;;8.70;90.30;;;8.93;76.74;98058.44;5023142;28;20990;-81
2022/10/10 04:20:56;;;;;;;4.53;3.70;;;8.70;90.20;;;8.89;76.91;98067.97;5028819;28;20582;-80
2022/10/10 04:23:23;;;;;;;7.60;4.03;;;8.60;90.30;;;8.72;76.65;98043.25;5036349;28;20520;-80
2022/10/10 04:25:52;;;;;;;6.70;4.60;;;8.60;90.80;;;8.67;76.64;98049.25;5047930;28;20489;-80
2022/10/10 04:28:19;;;;;;;7.70;4.10;;;8.60;90.10;;;8.77;77.13;98070.41;4995863;28;20552;-80
2022/10/10 04:30:49;;;;;;;4.40;4.00;;;8.60;90.20;;;8.53;76.83;98020.59;5006670;28;20459;-78
2022/10/10 04:33:18;;;;;;;9.40;5.33;;;8.60;90.10;;;8.68;76.90;98067.06;4990733;28;20456;-80
2022/10/10 04:35:59;;;;;;;5.63;4.27;;;8.60;90.10;;;8.70;77.22;98065.00;4996517;28;20456;-80
2022/10/10 04:38:39;;;;;;;7.87;5.00;;;8.60;90.10;;;8.57;76.58;98024.56;5021815;28;20450;-81
2022/10/10 04:41:16;;;;;;;4.47;3.73;;;8.60;90.10;;;8.08;76.94;97976.09;5035178;28;21172;-81
2022/10/10 04:43:45;;;;;;;4.60;3.77;;;8.60;90.20;;;8.70;77.41;98061.50;5006031;28;20460;-81
2022/10/10 04:46:14;;;;;;;6.17;4.47;;;8.60;90.30;;;8.57;77.40;98054.19;5020976;28;21020;-79
2022/10/10 04:48:41;;;;;;;5.10;3.80;;;8.60;90.30;;;8.65;77.91;98056.69;5006510;28;20470;-80
2022/10/10 04:51:10;;;;;;;5.70;4.13;;;8.60;90.30;;;8.69;76.65;98055.25;5008602;28;20458;-79
2022/10/10 04:53:39;;;;;;;4.67;4.17;;;8.60;90.00;;;8.67;77.46;98054.63;5002573;28;20523;-78
2022/10/10 04:56:07;;;;;;;6.57;4.87;;;8.60;90.00;;;8.69;76.93;98057.13;5023927;28;20470;-79
2022/10/10 04:58:34;;;;;;;8.13;4.50;;;8.60;90.10;;;8.71;76.77;98055.06;5001811;28;20496;-80
2022/10/10 05:01:03;;;;;;;6.67;5.00;;;8.60;90.30;;;8.25;77.56;97995.44;5021435;28;20992;-76
2022/10/10 05:03:31;;;;;;;10.20;4.27;;;8.50;90.30;;;8.55;77.37;98057.09;5005611;28;20459;-78
2022/10/10 05:05:58;;;;;;;8.50;3.87;;;8.50;90.40;;;8.67;77.36;98060.03;5026548;28;20471;-76
2022/10/10 05:08:25;;;;;;;4.30;3.87;;;8.50;90.40;;;8.64;77.31;98055.88;5004576;28;20470;-76
2022/10/10 05:10:53;;;;;;;5.47;4.23;;;8.50;90.40;;;8.70;76.71;98059.59;5031679;28;20994;-76
2022/10/10 05:13:20;;;;;;;9.00;4.67;;;8.50;90.80;;;8.69;77.11;98049.88;5019105;28;20912;-81
2022/10/10 05:15:51;;;;;;;6.57;4.77;;;8.50;90.50;;;8.66;77.45;98062.94;5001218;28;20519;-82
2022/10/10 05:18:18;;;;;;;7.03;4.63;;;8.50;90.40;;;8.54;77.62;98054.59;5019691;28;20483;-82
2022/10/10 05:20:47;;;;;;;5.20;4.63;;;8.50;90.60;;;8.49;78.15;98063.22;5027539;28;20466;-82
2022/10/10 05:23:15;;;;;;;6.27;4.70;;;8.50;90.40;;;8.43;78.14;98059.50;5016586;28;20523;-80
2022/10/10 05:25:44;;;;;;;5.43;4.10;;;8.40;90.50;;;8.41;78.59;98056.16;5015266;28;20535;-82
2022/10/10 05:28:13;;;;;;;5.10;4.40;;;8.40;90.70;;;8.52;77.89;98057.50;5006543;28;20838;-84
2022/10/10 05:30:41;;;;;;;9.83;7.03;;;8.40;90.60;;;8.50;77.95;98060.38;5006124;28;20473;-85
2022/10/10 05:33:08;;;;;;;9.13;5.10;;;8.50;90.70;;;8.38;78.46;98010.78;5004621;28;20452;-84
2022/10/10 05:35:36;;;;;;;7.57;5.10;;;8.60;91.70;;;8.70;78.21;98059.59;5023209;28;20475;-85
2022/10/10 05:38:05;;;;;;;6.00;5.20;;;8.60;91.50;;;8.62;78.11;98062.50;5025781;28;20465;-86
2022/10/10 05:40:32;;;;;;;8.37;5.23;;;8.60;90.70;;;8.78;78.80;98072.06;5012737;28;20457;-86
2022/10/10 05:43:01;;;;;;;9.10;5.67;;;8.70;91.20;;;8.87;78.43;98076.25;5027298;28;20504;-87
2022/10/10 05:45:29;;;;;;;5.77;4.70;;;8.70;90.70;;;8.55;76.85;98007.78;5030145;28;20578;-85
2022/10/10 05:47:56;;;;;;;8.90;5.57;;;8.80;90.40;;;8.86;76.98;98063.81;5011609;28;20535;-84
2022/10/10 05:50:31;;;;;;;6.20;4.50;;;8.80;90.20;;;8.95;76.94;98069.00;5029327;28;20782;-83
2022/10/10 05:52:58;;;;;;;9.90;4.37;;;8.80;90.40;;;8.84;76.95;98075.81;5034245;28;20462;-82
2022/10/10 05:55:27;;;;;;;8.83;5.00;;;8.80;90.10;;;8.95;77.60;98083.31;5011950;28;20463;-86
2022/10/10 05:57:54;;;;;;;5.73;4.70;;;8.80;90.50;;;8.85;76.98;98077.47;5025493;28;21036;-84
2022/10/10 06:00:21;;;;;;;8.43;5.60;;;8.80;90.00;;;8.97;76.89;98075.84;5027526;28;20459;-81
2022/10/10 06:02:49;;;;;;;6.83;4.97;;;8.90;89.90;;;8.97;76.61;98073.16;5031405;28;20488;-86
2022/10/10 06:05:17;;;;;;;9.83;5.13;;;8.90;89.60;;;9.05;77.03;98078.38;5012698;28;20542;-85
2022/10/10 06:07:45;;;;;;;7.90;4.90;;;9.00;89.70;;;8.85;76.74;98074.78;5021077;28;20472;-88
2022/10/10 06:10:12;;;;;;;9.70;5.60;;;8.90;89.20;;;9.03;76.34;98075.06;5034799;28;20557;-86
2022/10/10 06:12:40;;;;;;;6.37;4.90;;;8.90;89.80;;;8.95;77.16;98082.47;5026615;28;22305;-82
2022/10/10 06:15:10;;;;;;;6.43;4.30;;;8.90;89.50;;;8.95;76.93;98086.00;4996854;28;20464;-85
2022/10/10 06:17:37;;;;;;;9.33;5.13;;;8.90;89.10;;;8.86;77.12;98071.91;5022261;28;20448;-86
2022/10/10 06:20:05;;;;;;;8.67;5.70;;;9.00;89.10;;;8.91;76.84;98074.81;5033934;28;20461;-86
2022/10/10 06:22:32;;;;;;;6.10;4.53;;;8.90;88.90;;;8.78;77.17;98061.28;5009182;28;20476;-86
2022/10/10 06:24:59;;;;;;;8.83;4.70;;;8.90;88.90;;;9.01;76.54;98066.31;5023827;28;20466;-84
2022/10/10 06:27:27;;;;;;;6.90;5.23;;;9.00;89.00;;;8.97;76.60;98083.94;5024462;28;20450;-83
2022/10/10 06:29:55;;;;;;;7.33;4.70;;;8.90;88.90;;;8.81;76.89;98049.28;5033394;28;20457;-87
2022/10/10 06:32:23;;;;;;;9.50;5.30;;;9.00;89.00;;;9.00;76.44;98080.03;5036726;28;20456;-84
2022/10/10 06:34:52;;;;;;;8.57;4.87;;;9.00;88.90;;;9.03;76.35;98085.84;5040924;28;20469;-82
2022/10/10 06:37:19;;;;;;;10.03;4.87;;;8.90;89.10;;;8.99;75.65;98065.69;5025044;28;20445;-82
2022/10/10 06:39:47;;;;;;;7.40;4.70;;;9.00;88.80;;;9.26;75.17;98090.00;5042809;28;20458;-82
2022/10/10 06:42:14;;;;;;;6.37;5.77;;;9.00;88.80;;;9.15;76.18;98087.91;5040408;28;20477;-85
2022/10/10 06:44:41;;;;;;;8.30;5.07;;;9.00;88.30;;;9.29;75.20;98092.28;5033081;28;20470;-89
2022/10/10 06:47:11;;;;;;;7.43;5.83;;;9.10;88.50;;;9.22;75.49;98099.56;5016407;28;20456;-82
2022/10/10 06:49:38;;;;;;;8.70;4.90;;;9.10;88.50;;;9.26;75.81;98094.59;5023727;28;21030;-83
2022/10/10 06:52:06;;;;;;;8.70;5.20;;;9.10;88.20;;;9.15;76.20;98090.59;5011701;28;20445;-85
2022/10/10 06:54:33;;;;;;;6.63;5.40;;;9.10;88.10;;;9.33;74.91;98106.19;5020567;28;20464;-87
2022/10/10 06:57:00;;;;;;;6.60;5.73;;;9.20;88.20;;;9.37;75.59;98098.53;5017805;28;20458;-85
2022/10/10 06:59:27;;;;;;;8.93;5.90;;;9.20;88.20;;;9.49;74.72;98100.41;5025915;28;20450;-85
2022/10/10 07:01:55;;;;;;;9.03;5.67;;;9.30;88.10;;;9.70;74.38;98100.41;5028478;28;20488;-88
2022/10/10 07:04:24;;;;;;;8.33;5.90;;;9.50;87.60;;;9.53;74.34;98098.13;5011653;28;20472;-87
2022/10/10 07:06:51;;;;;;;8.50;5.83;;;9.50;86.90;;;9.52;74.49;98096.47;5009759;28;20476;-85
2022/10/10 07:09:19;;;;;;;8.60;5.13;;;9.50;86.60;;;9.49;73.95;98059.13;5021367;28;20466;-87
2022/10/10 07:11:46;;;;;;;7.93;5.13;;;9.60;86.70;;;9.74;73.48;98096.25;5025523;28;20466;-86
2022/10/10 07:14:13;;;;;;;11.33;5.10;;;9.70;86.10;;;9.85;73.55;98109.13;5023378;28;20465;-88
2022/10/10 07:16:41;;;;;;;5.80;5.20;;;9.80;86.00;;;9.82;73.55;98090.66;5010321;28;20469;-86
2022/10/10 07:19:09;;;;;;;9.17;4.60;;;9.80;85.80;;;10.01;73.08;98107.03;5003948;28;20462;-87
2022/10/10 07:21:37;;;;;;;7.70;4.63;;;9.90;85.80;;;10.14;72.77;98117.81;5007965;28;20472;-83
2022/10/10 07:24:05;;;;;;;5.67;5.10;;;9.90;85.80;;;10.04;73.18;98122.81;5016872;28;20473;-83
2022/10/10 07:26:36;;;;;;;9.43;4.70;;;10.00;84.70;;;9.95;73.83;98119.50;5009434;28;20522;-84
2022/10/10 07:29:04;;;;;;;6.80;4.60;;;10.00;84.40;;;9.97;73.57;98119.31;5025437;28;20471;-82
2022/10/10 07:31:33;;;;;;;11.30;5.30;;;10.00;84.60;;;9.62;74.26;98047.50;5029572;28;20451;-83
2022/10/10 07:34:00;;;;;;;7.43;5.10;;;9.90;85.90;;;10.03;74.38;98115.75;5006635;28;20451;-85
2022/10/10 07:36:27;;;;;;;10.43;5.63;;;10.00;85.20;;;10.24;74.31;98122.78;5012883;28;20541;-83
2022/10/10 07:38:56;;;;;;;9.50;5.10;;;10.00;85.10;;;10.07;73.29;98053.03;5019946;28;20485;-87
2022/10/10 07:41:23;;;;;;;8.53;5.20;;;10.20;85.30;;;10.60;72.62;98112.56;5022741;28;20484;-83
2022/10/10 07:43:54;;;;;;;10.33;5.20;;;10.30;85.10;;;10.76;71.56;98105.81;5027342;28;20493;-82
2022/10/10 07:46:23;;;;;;;7.17;4.97;;;10.60;84.50;;;10.60;71.49;98085.53;5033416;28;20464;-83
2022/10/10 07:48:50;;;;;;;8.73;4.93;;;10.80;83.90;;;11.08;71.58;98134.78;5023364;28;20458;-85
2022/10/10 07:51:18;;;;;;;5.97;5.37;;;10.90;83.70;;;11.09;71.33;98134.59;5034157;28;20555;-82
2022/10/10 07:53:45;;;;;;;6.47;5.80;;;11.00;83.50;;;11.23;70.90;98138.03;5020639;28;20948;-87
2022/10/10 07:56:14;;;;;;;6.90;5.10;;;11.10;83.50;;;11.00;71.02;98079.94;5021469;28;20488;-90
2022/10/10 07:58:41;;;;;;;8.97;6.40;;;11.20;83.50;;;11.41;71.13;98136.47;5001488;28;20487;-79
2022/10/10 08:01:11;;;;;;;8.50;6.97;;;11.20;83.50;;;11.20;70.62;98060.88;5009512;28;20536;-92
2022/10/10 08:03:39;;;;;;;7.73;6.90;;;11.40;83.60;;;11.46;70.33;98074.44;5007105;28;20957;-78
2022/10/10 08:06:10;;;;;;;7.40;6.70;;;11.60;83.50;;;11.79;69.16;98089.56;5026278;28;20969;-81
2022/10/10 08:08:38;;;;;;;9.40;7.13;;;11.80;83.00;;;12.11;69.36;98116.59;5019136;28;20961;-86
2022/10/10 08:11:06;;;;;;;10.40;7.23;;;12.00;83.00;;;12.03;70.34;98143.94;5023074;28;20465;-81
2022/10/10 08:13:36;;;;;;;9.40;7.73;;;12.00;82.90;;;12.19;70.28;98137.97;5026355;28;20470;-87
2022/10/10 08:16:04;;;;;;;9.77;7.80;;;12.00;83.10;;;12.10;70.43;98139.31;5027805;28;20472;-84
2022/10/10 08:18:32;;;;;;;10.93;7.80;;;12.00;83.30;;;12.07;70.52;98125.38;5029600;28;20448;-81
2022/10/10 08:20:59;;;;;;;12.10;8.07;;;12.00;83.50;;;12.21;70.57;98139.63;5028670;28;20461;-87
2022/10/10 08:23:27;;;;;;;8.87;7.73;;;12.00;83.70;;;11.76;70.40;98088.13;5023782;28;20529;-86
2022/10/10 08:25:58;;;;;;;9.00;7.60;;;11.90;83.50;;;12.32;70.17;98141.59;5019482;28;20449;-78
2022/10/10 08:28:25;;;;;;;11.23;8.15;;;12.00;83.80;;;12.53;69.78;98142.25;5024168;28;20449;-87
2022/10/10 08:30:55;;;;;;;9.10;7.47;;;12.20;83.60;;;12.04;70.60;98086.03;5028729;28;20311;-87
2022/10/10 08:33:23;;;;;;;8.20;7.43;;;12.20;83.50;;;12.58;69.74;98134.25;5028501;28;20513;-83
2022/10/10 08:35:50;;;;;;;9.60;7.50;;;12.30;83.50;;;12.37;70.24;98139.06;5030501;28;20960;-84
2022/10/10 08:38:17;;;;;;;12.30;8.07;;;12.30;83.70;;;12.53;70.35;98136.81;5031113;28;20543;-91
2022/10/10 08:40:48;;;;;;;10.43;8.37;;;12.30;83.50;;;12.49;70.58;98135.59;5026301;28;20469;-84
2022/10/10 08:43:22;;;;;;;9.37;8.37;;;12.40;83.50;;;12.43;69.92;98077.72;5010607;28;20962;-81
2022/10/10 08:45:54;;;;;;;9.63;7.40;;;12.50;83.50;;;12.38;69.66;98089.25;5029868;28;20477;-83
2022/10/10 08:48:26;;;;;;;10.90;7.70;;;12.60;83.10;;;13.01;69.04;98127.06;5026769;28;20461;-89
2022/10/10 08:50:59;;;;;;;14.03;8.83;;;12.70;83.20;;;13.27;68.65;98142.16;5027412;28;20512;-82
2022/10/10 08:53:33;;;;;;;11.27;7.40;;;12.90;82.90;;;13.29;68.05;98140.06;5020380;28;20519;-85
2022/10/10 08:56:02;;;;;;;10.13;7.63;;;13.10;82.50;;;13.28;68.60;98143.81;5015624;28;20468;-88
2022/10/10 08:58:33;;;;;;;9.20;7.73;;;13.10;82.70;;;13.36;68.18;98133.69;5012318;28;20468;-78
2022/10/10 09:01:07;;;;;;;14.63;8.03;;;13.20;82.80;;;13.73;66.86;98128.97;5019192;28;20469;-84
2022/10/10 09:03:39;;;;;;;11.80;8.17;;;13.30;82.60;;;13.41;68.18;98142.78;5033673;28;21035;-83
2022/10/10 09:06:29;;;;;;;9.50;8.20;;;13.30;82.50;;;13.45;67.59;98083.50;5049926;28;20908;-84
2022/10/10 09:09:07;;;;;;;10.38;8.57;;;13.40;82.40;;;14.08;66.39;98138.25;5031186;28;20534;-80
2022/10/10 09:11:58;;;;;;;13.33;8.37;;;13.60;82.60;;;14.30;65.93;98143.06;5030175;28;20204;-87
2022/10/10 09:14:35;;;;;;;8.37;7.47;;;13.80;82.30;;;14.35;65.26;98145.94;5022611;28;20460;-85
2022/10/10 09:17:19;;;;;;;11.53;8.60;;;13.90;81.80;;;14.34;65.46;98124.41;5027951;28;20511;-89
2022/10/10 09:20:01;;;;;;;9.63;7.53;;;14.00;81.70;;;14.17;66.57;98144.97;5025553;28;20489;-89
2022/10/10 09:22:33;;;;;;;9.60;8.27;;;14.00;81.80;;;14.55;65.42;98142.00;5025678;28;20477;-82
2022/10/10 09:25:06;;;;;;;12.53;7.87;;;14.10;81.70;;;14.84;64.43;98142.09;5014061;28;20449;-86
2022/10/10 09:27:38;;;;;;;13.07;8.03;;;14.40;81.40;;;15.13;63.97;98147.59;5045285;28;20461;-87
2022/10/10 09:30:14;;;;;;;8.43;7.70;;;14.70;81.10;;;15.51;62.47;98128.97;5010769;28;20458;-80
2022/10/10 09:32:48;;;;;;;9.37;7.77;;;15.00;80.80;;;15.86;61.87;98131.47;5025992;28;20454;-81
2022/10/10 09:35:20;;;;;;;8.83;7.93;;;15.30;80.50;;;15.65;61.78;98140.34;5019641;28;20442;-86
2022/10/10 09:37:51;;;;;;;8.83;7.93;;;15.30;79.80;;;15.44;62.70;98131.84;5036207;28;20970;-87
2022/10/10 09:40:26;;;;;;;9.73;8.10;;;15.20;79.90;;;15.64;61.94;98135.97;5037174;28;20475;-90
2022/10/10 09:42:54;;;;;;;11.13;7.77;;;15.30;79.70;;;15.56;62.43;98134.47;5030998;28;20481;-85
2022/10/10 09:45:29;;;;;;;8.80;8.00;;;15.30;79.70;;;15.32;63.32;98120.16;5033932;28;20449;-82
2022/10/10 09:47:58;;;;;;;11.93;8.20;;;15.30;80.00;;;15.82;62.08;98127.56;5037994;28;21193;-82
2022/10/10 09:50:26;;;;;;;9.30;8.00;;;15.40;79.80;;;16.03;61.24;98121.66;5030359;28;20560;-84
2022/10/10 09:52:54;;;;;;;8.90;7.13;;;15.50;79.60;;;15.42;63.07;98126.63;5004342;28;20204;-84
2022/10/10 09:55:28;;;;;;;9.57;7.67;;;15.40;79.30;;;15.53;62.73;98127.63;5013009;28;21318;-85
2022/10/10 09:58:10;;;;;;;9.23;7.23;;;15.40;79.60;;;15.18;64.05;98128.63;5030308;28;20525;-82
2022/10/10 10:00:38;;;;;;;8.80;7.90;;;15.10;79.80;;;15.82;62.47;98130.28;5014258;28;20472;-80
2022/10/10 10:03:20;;;;;;;10.17;8.20;;;15.30;80.00;;;15.83;62.26;98142.03;5034188;28;20516;-84
2022/10/10 10:05:56;;;;;;;10.77;8.27;;;15.50;79.80;;;15.60;62.89;98129.38;5009559;28;20480;-82
2022/10/10 10:08:41;;;;;;;9.97;8.47;;;15.50;79.60;;;15.70;63.21;98144.00;5027827;28;20454;-83
2022/10/10 10:11:35;;;;;;;9.60;7.90;;;15.40;80.00;;;15.50;63.47;98139.00;5013300;28;21027;-83
2022/10/10 10:14:36;;;;;;;12.07;8.80;;;15.30;79.80;;;15.58;63.24;98119.56;5030859;28;20475;-79
2022/10/10 10:17:10;;;;;;;9.43;8.00;;;15.40;80.20;;;15.86;63.29;98141.53;5037802;28;20457;-83
2022/10/10 10:22:40;;;;;;;9.67;8.50;;;15.30;80.30;;;15.28;63.81;98085.28;5038791;28;20477;-84
2022/10/10 10:25:38;;;;;;;11.23;8.07;;;15.40;80.40;;;15.63;64.00;98147.94;5026301;28;20462;-82
2022/10/10 10:28:24;;;;;;;9.70;8.70;;;15.40;80.50;;;15.81;63.63;98147.72;5006926;28;20450;-82
2022/10/10 10:30:57;;;;;;;10.60;8.77;;;15.50;80.60;;;15.94;63.90;98146.63;5037541;28;20461;-80
2022/10/10 10:33:38;;;;;;;12.30;9.47;;;15.60;80.60;;;15.88;63.76;98149.47;5040395;28;20463;-81
2022/10/10 10:36:24;;;;;;;9.13;8.17;;;15.60;80.30;;;15.85;63.74;98138.00;5036576;28;21442;-79
2022/10/10 10:38:58;;;;;;;9.93;8.87;;;15.70;80.50;;;15.95;63.63;98147.41;5037099;28;20466;-83
2022/10/10 10:41:35;;;;;;;8.97;7.83;;;15.70;80.60;;;16.18;63.05;98137.44;5017505;28;20454;-84
2022/10/10 10:44:18;;;;;;;8.53;7.73;;;15.80;80.30;;;16.17;63.11;98141.25;5014020;28;20474;-83
2022/10/10 10:47:00;;;;;;;9.20;8.20;;;15.80;80.40;;;16.06;63.23;98129.34;5003565;28;20463;-85